Time;durP1;ratioP1;P1;durP2;ratioP2;P2;SDS_P1;SDS_P2;PMS_P1;PMS_P2;Temp;Humidity;BMP_temperature;BMP_pressure;BME280_temperature;BME280_humidity;BME280_pressure;Samples;Min_cycle;Max_cycle;Signal;HPM_P1;HPM_P2
2021/01/14 00:00:19;;;;;;;7.53;3.40;;;2.20;99.90;;;;;;4901993;29;20045;-93
2021/01/14 00:02:45;;;;;;;6.93;3.72;;;2.20;99.90;;;;;;4887937;29;20048;-94
2021/01/14 00:05:12;;;;;;;5.63;2.90;;;2.20;99.90;;;;;;4886143;29;20036;-95
2021/01/14 00:07:38;;;;;;;5.53;2.92;;;2.20;99.90;;;;;;4902017;29;20041;-93
2021/01/14 00:10:06;;;;;;;5.40;3.05;;;2.20;99.90;;;;;;4915807;29;20040;-94
2021/01/14 00:12:33;;;;;;;5.43;3.20;;;2.20;99.90;;;;;;4923031;29;20112;-94
2021/01/14 00:14:58;;;;;;;5.90;3.72;;;2.20;99.90;;;;;;4923312;29;20046;-94
2021/01/14 00:17:24;;;;;;;7.35;3.72;;;2.20;99.90;;;;;;4923939;29;20063;-94
2021/01/14 00:19:50;;;;;;;6.40;3.65;;;2.20;99.90;;;;;;4908531;29;20025;-94
2021/01/14 00:22:15;;;;;;;5.55;3.30;;;2.20;99.90;;;;;;4924083;29;20017;-94
2021/01/14 00:24:41;;;;;;;4.93;3.30;;;2.20;99.90;;;;;;4911714;29;20037;-94
2021/01/14 00:27:08;;;;;;;7.22;3.88;;;2.20;99.90;;;;;;4906213;29;20036;-93
2021/01/14 00:29:34;;;;;;;5.63;3.45;;;2.20;99.90;;;;;;4904113;29;20077;-94
2021/01/14 00:32:00;;;;;;;6.47;3.33;;;2.10;99.90;;;;;;4901790;29;20028;-94
2021/01/14 00:34:25;;;;;;;6.20;3.60;;;2.20;99.90;;;;;;4885821;29;20139;-93
2021/01/14 00:39:35;;;;;;;6.78;3.90;;;2.20;99.90;;;;;;4902089;29;20092;-94
2021/01/14 00:42:01;;;;;;;6.78;4.20;;;2.10;99.90;;;;;;4900965;29;20032;-94
2021/01/14 00:44:27;;;;;;;6.80;3.92;;;2.10;99.90;;;;;;4900828;29;20036;-94
2021/01/14 00:46:56;;;;;;;6.55;4.10;;;2.20;99.90;;;;;;4900453;29;20040;-95
2021/01/14 00:49:23;;;;;;;5.57;3.95;;;2.20;99.90;;;;;;4900428;29;20049;-94
2021/01/14 00:51:49;;;;;;;6.45;3.58;;;2.20;99.90;;;;;;4900491;29;20084;-94
2021/01/14 00:54:15;;;;;;;8.02;4.10;;;2.10;99.90;;;;;;4884873;29;20047;-94
2021/01/14 00:56:41;;;;;;;6.47;3.83;;;2.20;99.90;;;;;;4900428;29;20111;-94
2021/01/14 00:59:07;;;;;;;5.88;3.75;;;2.10;99.90;;;;;;4900284;29;20521;-95
2021/01/14 01:01:34;;;;;;;5.60;3.40;;;2.20;99.90;;;;;;4900054;29;20047;-95
2021/01/14 01:04:01;;;;;;;5.75;3.55;;;2.20;99.90;;;;;;4884354;29;20032;-96
2021/01/14 01:06:40;;;;;;;5.95;3.78;;;2.20;99.90;;;;;;4899475;29;20129;-95
2021/01/14 01:09:08;;;;;;;6.25;3.60;;;2.20;99.90;;;;;;4899567;29;20032;-94
2021/01/14 01:11:34;;;;;;;5.85;3.50;;;2.20;99.90;;;;;;4899573;29;20028;-95
2021/01/14 01:14:00;;;;;;;6.63;3.03;;;2.20;99.90;;;;;;4899420;29;20036;-96
2021/01/14 01:16:25;;;;;;;4.97;2.83;;;2.20;99.90;;;;;;4899091;29;20031;-93
2021/01/14 01:18:51;;;;;;;3.22;2.40;;;2.20;99.90;;;;;;4898874;29;20081;-93
2021/01/14 01:21:17;;;;;;;3.65;2.70;;;2.20;99.90;;;;;;4884143;29;20095;-92
2021/01/14 01:23:43;;;;;;;5.47;2.97;;;2.20;99.90;;;;;;4899557;29;20108;-92
2021/01/14 01:26:18;;;;;;;5.03;3.20;;;2.20;99.90;;;;;;4899397;29;20108;-95
2021/01/14 01:28:44;;;;;;;7.43;3.75;;;2.20;99.90;;;;;;4899076;29;20060;-93
2021/01/14 01:31:11;;;;;;;5.93;3.10;;;2.20;99.90;;;;;;4898944;29;20037;-93
2021/01/14 01:33:38;;;;;;;4.95;2.92;;;2.20;99.90;;;;;;4899444;29;20043;-93
2021/01/14 01:36:04;;;;;;;6.72;3.75;;;2.20;99.90;;;;;;4899159;29;20065;-94
2021/01/14 01:38:30;;;;;;;6.38;3.60;;;2.20;99.90;;;;;;4899956;29;20033;-94
2021/01/14 01:41:00;;;;;;;7.15;3.72;;;2.20;99.90;;;;;;4899201;29;20067;-94
2021/01/14 01:43:27;;;;;;;4.07;2.40;;;2.20;99.90;;;;;;4898925;29;20029;-93
2021/01/14 01:45:54;;;;;;;3.67;2.28;;;2.30;99.90;;;;;;4898772;29;20036;-94
2021/01/14 01:48:21;;;;;;;4.72;2.88;;;2.20;99.90;;;;;;4898364;29;20032;-94
2021/01/14 01:50:48;;;;;;;4.22;2.63;;;2.30;99.90;;;;;;4898822;29;20153;-94
2021/01/14 01:53:14;;;;;;;4.43;2.65;;;2.30;99.90;;;;;;4882646;29;20041;-93
2021/01/14 01:55:43;;;;;;;3.92;2.60;;;2.20;99.90;;;;;;4898780;29;20028;-94
2021/01/14 01:58:11;;;;;;;2.72;1.92;;;2.30;99.90;;;;;;4898507;29;20037;-94
2021/01/14 02:00:37;;;;;;;2.70;1.73;;;2.20;99.90;;;;;;4898634;29;20059;-94
2021/01/14 02:03:03;;;;;;;2.72;2.17;;;2.20;99.90;;;;;;4898468;29;20020;-94
2021/01/14 02:05:29;;;;;;;3.60;2.60;;;2.20;99.90;;;;;;4897163;29;20123;-95
2021/01/14 02:08:25;;;;;;;3.92;2.38;;;2.20;99.90;;;;;;4898303;29;20545;-95
2021/01/14 02:11:05;;;;;;;4.07;2.28;;;2.20;99.90;;;;;;4883100;29;20047;-94
2021/01/14 02:14:09;;;;;;;4.05;2.33;;;2.20;99.90;;;;;;4898438;29;20044;-94
2021/01/14 02:16:37;;;;;;;5.07;2.22;;;2.20;99.90;;;;;;4882663;29;20033;-95
2021/01/14 02:19:09;;;;;;;4.05;2.63;;;2.20;99.90;;;;;;4898088;29;20024;-94
2021/01/14 02:21:37;;;;;;;2.97;2.35;;;2.20;99.90;;;;;;4898540;29;20029;-94
2021/01/14 02:24:16;;;;;;;4.75;2.20;;;2.20;99.90;;;;;;4882543;29;20039;-94
2021/01/14 02:26:44;;;;;;;2.83;2.13;;;2.30;99.90;;;;;;4897956;29;20127;-95
2021/01/14 02:29:10;;;;;;;2.42;2.03;;;2.30;99.90;;;;;;4897647;29;20127;-94
2021/01/14 02:31:36;;;;;;;3.45;2.17;;;2.30;99.90;;;;;;4898128;29;20033;-93
2021/01/14 02:34:02;;;;;;;3.67;2.28;;;2.30;99.90;;;;;;4897778;29;20036;-94
2021/01/14 02:36:28;;;;;;;3.33;1.90;;;2.30;99.90;;;;;;4897902;29;20036;-94
2021/01/14 02:38:54;;;;;;;4.20;2.00;;;2.30;99.90;;;;;;4897835;29;20043;-94
2021/01/14 02:41:20;;;;;;;3.47;1.80;;;2.30;99.90;;;;;;4882616;29;20037;-95
2021/01/14 02:43:47;;;;;;;2.63;1.80;;;2.30;99.90;;;;;;4897803;29;20398;-93
2021/01/14 02:46:13;;;;;;;4.10;1.80;;;2.30;99.90;;;;;;4898002;29;20067;-94
2021/01/14 02:48:48;;;;;;;2.17;1.83;;;2.30;99.90;;;;;;4897719;29;20075;-93
2021/01/14 02:51:39;;;;;;;3.17;1.98;;;2.30;99.90;;;;;;4882224;29;20021;-92
2021/01/14 02:54:05;;;;;;;3.13;2.10;;;2.30;99.90;;;;;;4897758;29;20040;-94
2021/01/14 02:56:33;;;;;;;2.10;1.50;;;2.30;99.90;;;;;;4897625;29;20033;-94
2021/01/14 02:59:02;;;;;;;3.13;1.83;;;2.30;99.90;;;;;;4897406;29;20036;-93
2021/01/14 03:01:28;;;;;;;3.45;1.98;;;2.30;99.90;;;;;;4897016;29;20085;-95
2021/01/14 03:03:53;;;;;;;3.05;1.80;;;2.30;99.90;;;;;;4897840;29;20063;-93
2021/01/14 03:06:19;;;;;;;4.78;2.33;;;2.40;99.90;;;;;;4897440;29;20025;-92
2021/01/14 03:08:46;;;;;;;3.00;1.92;;;2.30;99.90;;;;;;4897475;29;20076;-93
2021/01/14 03:11:12;;;;;;;2.05;1.50;;;2.40;99.90;;;;;;4897529;29;20060;-93
2021/01/14 03:13:38;;;;;;;2.55;1.77;;;2.40;99.90;;;;;;4881860;29;20051;-93
2021/01/14 03:16:06;;;;;;;3.05;1.42;;;2.40;99.90;;;;;;4897532;29;20100;-94
2021/01/14 03:18:31;;;;;;;1.90;1.40;;;2.40;99.90;;;;;;4897637;29;20032;-95
2021/01/14 03:20:57;;;;;;;2.15;1.52;;;2.40;99.90;;;;;;4898108;29;20036;-94
2021/01/14 03:23:23;;;;;;;2.15;1.50;;;2.40;99.90;;;;;;4898060;29;20610;-94
2021/01/14 03:25:48;;;;;;;1.67;1.15;;;2.40;99.90;;;;;;4898519;29;20484;-93
2021/01/14 03:28:14;;;;;;;1.75;1.20;;;2.40;99.90;;;;;;4898742;29;20479;-93
2021/01/14 03:30:40;;;;;;;2.70;1.42;;;2.40;99.90;;;;;;4888666;29;20044;-94
2021/01/14 03:33:05;;;;;;;1.95;1.48;;;2.40;99.90;;;;;;4921260;29;20049;-93
2021/01/14 03:35:31;;;;;;;2.80;1.85;;;2.40;99.90;;;;;;4921107;29;20029;-93
2021/01/14 03:37:57;;;;;;;2.25;1.67;;;2.40;99.90;;;;;;4920967;29;20032;-93
2021/01/14 03:40:22;;;;;;;3.38;2.00;;;2.40;99.90;;;;;;4920406;29;20065;-94
2021/01/14 03:42:48;;;;;;;2.75;1.90;;;2.40;99.90;;;;;;4912122;29;20025;-94
2021/01/14 03:45:17;;;;;;;2.67;1.80;;;2.40;99.90;;;;;;4900375;29;20029;-93
2021/01/14 03:47:42;;;;;;;2.80;2.10;;;2.40;99.90;;;;;;4884065;29;20060;-93
2021/01/14 03:50:09;;;;;;;3.15;1.85;;;2.40;99.90;;;;;;4898313;29;20035;-95
2021/01/14 03:52:35;;;;;;;2.58;1.52;;;2.40;99.90;;;;;;4897581;29;20032;-94
2021/01/14 03:55:01;;;;;;;3.53;1.98;;;2.40;99.90;;;;;;4914062;29;20040;-94
2021/01/14 03:57:27;;;;;;;2.20;1.40;;;2.40;99.90;;;;;;4915013;29;20024;-94
2021/01/14 03:59:53;;;;;;;2.80;1.63;;;2.40;99.90;;;;;;4910141;29;20095;-94
2021/01/14 04:02:18;;;;;;;2.67;1.75;;;2.40;99.90;;;;;;4914882;29;20084;-92
2021/01/14 04:04:44;;;;;;;2.15;1.60;;;2.40;99.90;;;;;;4899089;29;20122;-94
2021/01/14 04:07:12;;;;;;;2.45;1.55;;;2.40;99.90;;;;;;4914698;29;20057;-93
2021/01/14 04:09:39;;;;;;;1.90;1.33;;;2.40;99.90;;;;;;4915044;29;20054;-95
2021/01/14 04:12:05;;;;;;;2.25;1.50;;;2.40;99.90;;;;;;4914785;29;20032;-94
2021/01/14 04:14:31;;;;;;;3.00;1.52;;;2.40;99.90;;;;;;4919018;29;20044;-94
2021/01/14 04:16:57;;;;;;;2.80;1.73;;;2.40;99.90;;;;;;4919193;29;20490;-94
2021/01/14 04:19:23;;;;;;;2.67;1.70;;;2.40;99.90;;;;;;4903853;29;20128;-93
2021/01/14 04:21:49;;;;;;;2.80;1.60;;;2.50;99.90;;;;;;4918862;29;20059;-93
2021/01/14 04:24:15;;;;;;;2.92;1.58;;;2.40;99.90;;;;;;4918632;29;20036;-94
2021/01/14 04:26:41;;;;;;;1.90;1.60;;;2.40;99.90;;;;;;4919383;29;20043;-93
2021/01/14 04:29:08;;;;;;;2.33;1.52;;;2.50;99.90;;;;;;4918844;29;20032;-93
2021/01/14 04:31:34;;;;;;;3.80;1.83;;;2.40;99.90;;;;;;4919043;29;20043;-92
2021/01/14 04:34:01;;;;;;;3.55;1.95;;;2.40;99.90;;;;;;4918802;29;20480;-92
2021/01/14 04:36:27;;;;;;;2.92;2.00;;;2.50;99.90;;;;;;4903057;29;20471;-94
2021/01/14 04:38:53;;;;;;;2.40;1.63;;;2.50;99.90;;;;;;4918854;29;20037;-93
2021/01/14 04:41:20;;;;;;;1.83;1.10;;;2.50;99.90;;;;;;4918616;29;20035;-93
2021/01/14 04:43:47;;;;;;;1.42;1.23;;;2.50;99.90;;;;;;4903144;29;20043;-93
2021/01/14 04:46:14;;;;;;;1.77;1.40;;;2.50;99.90;;;;;;4918281;29;20095;-94
2021/01/14 04:48:45;;;;;;;1.55;1.10;;;2.50;99.90;;;;;;4902080;29;20032;-94
2021/01/14 04:51:15;;;;;;;2.03;1.40;;;2.50;99.90;;;;;;4902162;29;20032;-94
2021/01/14 04:53:48;;;;;;;1.33;1.10;;;2.50;99.90;;;;;;4917811;29;20036;-93
2021/01/14 04:56:16;;;;;;;2.28;1.30;;;2.50;99.90;;;;;;4917722;29;20028;-93
2021/01/14 04:58:46;;;;;;;1.02;0.93;;;2.50;99.90;;;;;;4917888;29;20054;-93
2021/01/14 05:01:24;;;;;;;1.83;1.20;;;2.50;99.90;;;;;;4917394;29;20115;-93
2021/01/14 05:03:52;;;;;;;1.40;1.08;;;2.40;99.90;;;;;;4917649;29;20135;-93
2021/01/14 05:06:23;;;;;;;1.10;0.90;;;2.50;99.90;;;;;;4917532;29;20119;-93
2021/01/14 05:08:51;;;;;;;1.20;1.00;;;2.40;99.90;;;;;;4918153;29;20064;-93
2021/01/14 05:11:18;;;;;;;1.02;0.93;;;2.40;99.90;;;;;;4917954;29;20028;-93
2021/01/14 05:13:45;;;;;;;1.05;0.80;;;2.40;99.90;;;;;;4917749;29;20039;-93
2021/01/14 05:16:12;;;;;;;0.82;0.80;;;2.50;99.90;;;;;;4917804;29;20032;-92
2021/01/14 05:18:41;;;;;;;0.77;0.77;;;2.40;99.90;;;;;;4917899;29;20024;-93
2021/01/14 05:21:07;;;;;;;1.15;0.80;;;2.40;99.90;;;;;;4901999;29;20036;-92
2021/01/14 05:23:33;;;;;;;0.73;0.73;;;2.40;99.90;;;;;;4917417;29;20035;-95
2021/01/14 05:25:59;;;;;;;0.93;0.77;;;2.40;99.90;;;;;;4917657;29;20035;-92
2021/01/14 05:28:28;;;;;;;1.10;0.73;;;2.40;99.90;;;;;;4917523;29;20032;-92
2021/01/14 05:31:12;;;;;;;0.85;0.60;;;2.40;99.90;;;;;;4917573;29;20031;-93
2021/01/14 05:33:37;;;;;;;0.80;0.60;;;2.40;99.90;;;;;;4917957;29;20082;-93
2021/01/14 05:36:04;;;;;;;0.60;0.60;;;2.40;99.90;;;;;;4917948;29;20619;-93
2021/01/14 05:38:31;;;;;;;0.45;0.45;;;2.40;99.90;;;;;;4917927;29;20032;-93
2021/01/14 05:41:18;;;;;;;0.93;0.75;;;2.40;99.90;;;;;;4918259;29;20374;-93
2021/01/14 05:44:00;;;;;;;1.02;0.80;;;2.40;99.90;;;;;;4902610;29;20047;-93
2021/01/14 05:46:33;;;;;;;0.90;0.80;;;2.40;99.90;;;;;;4918399;29;20111;-93
2021/01/14 05:49:01;;;;;;;0.82;0.70;;;2.40;99.90;;;;;;4917950;29;20036;-93
2021/01/14 05:51:27;;;;;;;0.85;0.85;;;2.40;99.90;;;;;;4917259;29;20090;-93
2021/01/14 05:54:03;;;;;;;0.50;0.50;;;2.40;99.90;;;;;;4901687;29;20483;-93
2021/01/14 05:56:47;;;;;;;0.60;0.60;;;2.40;99.90;;;;;;4917673;29;20032;-93
2021/01/14 05:59:15;;;;;;;0.88;0.80;;;2.40;99.90;;;;;;4917210;29;20039;-93
2021/01/14 06:01:57;;;;;;;0.60;0.60;;;2.40;99.90;;;;;;4917544;29;20191;-93
2021/01/14 06:04:25;;;;;;;0.70;0.70;;;2.40;99.90;;;;;;4917827;29;20032;-93
2021/01/14 06:07:02;;;;;;;0.75;0.68;;;2.40;99.90;;;;;;4917458;29;20043;-92
2021/01/14 06:09:28;;;;;;;0.52;0.52;;;2.40;99.90;;;;;;4901608;29;20490;-94
2021/01/14 06:12:08;;;;;;;0.60;0.60;;;2.40;99.90;;;;;;4917779;29;20020;-94
2021/01/14 06:14:34;;;;;;;0.68;0.60;;;2.40;99.90;;;;;;4917498;29;20039;-94
2021/01/14 06:17:01;;;;;;;1.10;0.80;;;2.40;99.90;;;;;;4917144;29;20024;-93
2021/01/14 06:19:28;;;;;;;0.47;0.47;;;2.40;99.90;;;;;;4916816;29;20501;-93
2021/01/14 06:21:57;;;;;;;1.08;0.70;;;2.40;99.90;;;;;;4917231;29;20032;-93
2021/01/14 06:24:29;;;;;;;1.00;0.90;;;2.40;99.90;;;;;;4917558;29;20111;-92
2021/01/14 06:27:08;;;;;;;0.60;0.60;;;2.50;99.90;;;;;;4901353;29;20028;-94
2021/01/14 06:29:38;;;;;;;0.80;0.60;;;2.50;99.90;;;;;;4917336;29;20075;-93
2021/01/14 06:32:15;;;;;;;0.75;0.70;;;2.40;99.90;;;;;;4917531;29;20024;-94
2021/01/14 06:34:46;;;;;;;0.60;0.60;;;2.50;99.90;;;;;;4916491;29;20055;-93
2021/01/14 06:37:22;;;;;;;0.60;0.60;;;2.40;99.90;;;;;;4917474;29;20036;-94
2021/01/14 06:39:53;;;;;;;0.90;0.70;;;2.50;99.90;;;;;;4917542;29;20038;-93
2021/01/14 06:42:27;;;;;;;0.55;0.55;;;2.50;99.90;;;;;;4901982;29;20036;-93
2021/01/14 06:44:55;;;;;;;0.55;0.55;;;2.50;99.90;;;;;;4902344;29;20474;-93
2021/01/14 06:47:38;;;;;;;1.75;0.70;;;2.50;99.90;;;;;;4918378;29;20040;-94
2021/01/14 06:50:21;;;;;;;0.60;0.60;;;2.50;99.90;;;;;;4928649;29;20036;-93
2021/01/14 06:52:53;;;;;;;0.50;0.50;;;2.50;99.90;;;;;;4919564;29;20064;-93
2021/01/14 06:55:22;;;;;;;0.60;0.50;;;2.50;99.90;;;;;;4938595;29;20060;-92
2021/01/14 06:58:07;;;;;;;0.60;0.60;;;2.50;99.90;;;;;;4924942;29;20030;-93
2021/01/14 07:00:39;;;;;;;0.88;0.60;;;2.50;99.90;;;;;;4911551;29;20063;-93
2021/01/14 07:03:14;;;;;;;0.80;0.60;;;2.50;99.90;;;;;;4898841;29;20119;-94
2021/01/14 07:05:55;;;;;;;0.82;0.70;;;2.60;99.90;;;;;;4908674;29;20032;-93
2021/01/14 07:08:35;;;;;;;0.50;0.50;;;2.50;99.90;;;;;;4899341;29;20071;-93
2021/01/14 07:11:17;;;;;;;0.85;0.40;;;2.50;99.90;;;;;;4916948;29;20119;-94
2021/01/14 07:13:44;;;;;;;0.40;0.40;;;2.50;99.90;;;;;;4917456;29;20036;-93
2021/01/14 07:16:16;;;;;;;0.40;0.40;;;2.50;99.90;;;;;;4901248;29;20557;-93
2021/01/14 07:18:44;;;;;;;0.35;0.35;;;2.50;99.90;;;;;;4901374;29;20478;-93
2021/01/14 07:21:34;;;;;;;0.30;0.30;;;2.50;99.90;;;;;;4917402;29;20060;-94
2021/01/14 07:24:19;;;;;;;0.30;0.30;;;2.50;99.90;;;;;;4900731;29;20491;-92
2021/01/14 07:27:03;;;;;;;0.30;0.30;;;2.50;99.90;;;;;;4901349;29;20029;-94
2021/01/14 07:29:32;;;;;;;0.38;0.38;;;2.60;99.90;;;;;;4898925;29;20028;-94
2021/01/14 07:32:00;;;;;;;0.30;0.30;;;2.60;99.90;;;;;;4915160;29;20075;-93
2021/01/14 07:34:31;;;;;;;0.50;0.50;;;2.50;99.90;;;;;;4899829;29;20044;-93
2021/01/14 07:36:57;;;;;;;0.77;0.50;;;2.50;99.90;;;;;;4899503;29;20008;-95
2021/01/14 07:39:45;;;;;;;0.40;0.40;;;2.50;99.90;;;;;;4915407;29;20092;-93
2021/01/14 07:42:30;;;;;;;1.13;0.60;;;2.50;99.90;;;;;;4914105;29;20063;-94
2021/01/14 07:45:13;;;;;;;0.70;0.30;;;2.50;99.90;;;;;;4900396;29;20550;-95
2021/01/14 07:47:39;;;;;;;1.25;0.50;;;2.50;99.90;;;;;;4917382;29;20026;-93
2021/01/14 07:50:20;;;;;;;0.30;0.30;;;2.50;99.90;;;;;;4903130;29;20044;-94
2021/01/14 07:52:48;;;;;;;0.52;0.50;;;2.50;99.90;;;;;;4918593;29;20028;-94
2021/01/14 07:55:27;;;;;;;0.40;0.40;;;2.50;99.90;;;;;;4920837;29;20109;-93
2021/01/14 07:58:12;;;;;;;0.43;0.43;;;2.50;99.90;;;;;;4902816;29;20056;-93
2021/01/14 08:00:39;;;;;;;0.73;0.50;;;2.50;99.90;;;;;;4902232;29;20036;-93
2021/01/14 08:03:13;;;;;;;0.30;0.30;;;2.50;99.90;;;;;;4914629;29;20042;-94
2021/01/14 08:06:02;;;;;;;0.50;0.40;;;2.40;99.90;;;;;;4918957;29;20087;-93
2021/01/14 08:08:31;;;;;;;1.00;0.70;;;2.40;99.90;;;;;;4899047;29;20032;-93
2021/01/14 08:11:27;;;;;;;0.38;0.38;;;2.40;99.90;;;;;;4913504;29;20020;-94
2021/01/14 08:14:14;;;;;;;0.50;0.43;;;2.30;99.90;;;;;;4877729;29;20059;-92
2021/01/14 08:16:49;;;;;;;0.45;0.45;;;2.30;99.90;;;;;;4899931;29;20032;-94
2021/01/14 08:19:33;;;;;;;0.47;0.47;;;2.30;99.90;;;;;;4913640;29;20036;-94
2021/01/14 08:22:02;;;;;;;0.30;0.30;;;2.30;99.90;;;;;;4921169;29;20028;-96
2021/01/14 08:25:12;;;;;;;0.30;0.30;;;2.30;99.90;;;;;;4911377;29;20084;-96
2021/01/14 08:27:38;;;;;;;0.68;0.65;;;2.20;99.90;;;;;;4912860;29;20094;-96
2021/01/14 08:30:16;;;;;;;0.50;0.50;;;2.20;99.90;;;;;;4923310;29;20021;-96
2021/01/14 08:32:49;;;;;;;0.52;0.50;;;2.20;99.90;;;;;;4914930;29;20028;-95
2021/01/14 08:35:15;;;;;;;0.73;0.73;;;2.20;99.90;;;;;;4920881;29;20032;-96
2021/01/14 08:37:55;;;;;;;1.13;0.82;;;2.20;99.90;;;;;;4917555;29;20164;-96
2021/01/14 08:40:31;;;;;;;0.85;0.82;;;2.20;99.90;;;;;;4905566;29;20042;-95
2021/01/14 08:43:00;;;;;;;1.00;0.90;;;2.20;99.90;;;;;;4900228;29;20039;-95
2021/01/14 08:45:46;;;;;;;1.40;1.00;;;2.20;99.90;;;;;;4919265;29;20071;-96
2021/01/14 08:48:33;;;;;;;1.77;1.10;;;2.10;99.90;;;;;;4904389;29;20054;-96
2021/01/14 08:50:58;;;;;;;1.42;1.10;;;2.10;99.90;;;;;;4900354;29;20036;-95
2021/01/14 08:53:27;;;;;;;1.55;1.08;;;2.10;99.90;;;;;;4919292;29;20043;-95
2021/01/14 08:56:02;;;;;;;1.50;1.20;;;2.10;99.90;;;;;;4917980;29;20041;-95
2021/01/14 08:58:44;;;;;;;1.75;1.30;;;2.10;99.90;;;;;;4900552;29;20031;-95
2021/01/14 09:01:20;;;;;;;1.00;0.90;;;2.00;99.90;;;;;;4900868;29;20052;-96
2021/01/14 09:03:47;;;;;;;1.35;1.00;;;2.00;99.90;;;;;;4901146;29;20024;-94
2021/01/14 09:06:13;;;;;;;3.58;0.80;;;2.00;99.90;;;;;;4915479;29;20035;-94
2021/01/14 09:08:39;;;;;;;1.92;0.60;;;1.90;99.90;;;;;;4897443;29;20024;-94
2021/01/14 09:11:05;;;;;;;1.15;0.70;;;1.90;99.90;;;;;;4915078;29;20040;-95
2021/01/14 09:13:33;;;;;;;1.10;0.70;;;1.90;99.90;;;;;;4899481;29;20051;-95
2021/01/14 09:16:10;;;;;;;0.90;0.60;;;1.90;99.90;;;;;;4899340;29;20065;-95
2021/01/14 09:18:38;;;;;;;0.80;0.70;;;1.90;99.90;;;;;;4917478;29;20311;-95
2021/01/14 09:21:04;;;;;;;1.63;1.00;;;1.90;99.90;;;;;;4911596;29;20451;-94
2021/01/14 09:23:35;;;;;;;0.63;0.60;;;1.80;99.90;;;;;;4873124;29;20091;-95
2021/01/14 09:26:18;;;;;;;0.80;0.70;;;1.80;99.90;;;;;;4906084;29;20055;-94
2021/01/14 09:28:48;;;;;;;0.80;0.57;;;1.80;99.90;;;;;;4897939;29;20040;-94
2021/01/14 09:31:15;;;;;;;1.45;0.70;;;1.80;99.90;;;;;;4912728;29;20059;-94
2021/01/14 09:33:43;;;;;;;0.65;0.65;;;1.80;99.90;;;;;;4907081;29;20076;-95
2021/01/14 09:36:14;;;;;;;0.60;0.40;;;1.80;99.90;;;;;;4897866;29;20043;-95
2021/01/14 09:38:52;;;;;;;;;;;1.80;99.90;;;;;;4905762;29;20036;-94
2021/01/14 09:41:31;;;;;;;2.00;0.98;;;1.80;99.90;;;;;;4899680;29;19911;-96
2021/01/14 09:44:02;;;;;;;2.20;1.10;;;1.90;99.90;;;;;;4914073;29;20047;-95
2021/01/14 09:46:47;;;;;;;2.17;1.10;;;1.80;99.90;;;;;;4900983;29;20032;-95
2021/01/14 09:49:15;;;;;;;3.03;1.15;;;1.80;99.90;;;;;;4917022;29;20024;-95
2021/01/14 09:51:44;;;;;;;2.80;1.10;;;1.80;99.90;;;;;;4928179;29;20020;-94
2021/01/14 09:54:11;;;;;;;3.35;1.05;;;1.80;99.90;;;;;;4935545;29;20059;-94
2021/01/14 09:56:42;;;;;;;1.85;1.30;;;1.80;99.90;;;;;;4923603;29;20024;-94
2021/01/14 09:59:24;;;;;;;2.67;1.25;;;1.80;99.90;;;;;;4918577;29;20052;-95
2021/01/14 10:01:54;;;;;;;3.38;1.50;;;1.80;99.90;;;;;;4909541;29;20044;-95
2021/01/14 10:04:25;;;;;;;1.90;1.50;;;1.90;99.90;;;;;;4909070;29;20055;-95
2021/01/14 10:07:03;;;;;;;7.68;5.55;;;1.90;99.90;;;;;;4913480;29;20036;-95
2021/01/14 10:09:32;;;;;;;7.18;5.15;;;1.90;99.90;;;;;;4919302;29;20032;-96
2021/01/14 10:12:00;;;;;;;3.45;2.20;;;1.90;99.90;;;;;;4921265;29;20028;-94
2021/01/14 10:14:27;;;;;;;6.55;2.45;;;1.90;99.90;;;;;;4919045;29;20068;-95
2021/01/14 10:16:52;;;;;;;4.80;2.72;;;1.80;99.90;;;;;;4931228;29;20020;-95
2021/01/14 10:19:20;;;;;;;4.70;2.45;;;1.80;99.90;;;;;;4926190;29;20022;-94
2021/01/14 10:21:47;;;;;;;4.93;2.78;;;1.80;99.90;;;;;;4920485;29;20028;-93
2021/01/14 10:24:30;;;;;;;4.75;2.53;;;1.80;99.90;;;;;;4919401;29;20379;-96
2021/01/14 10:27:26;;;;;;;5.57;2.72;;;1.80;99.90;;;;;;4936932;29;20030;-95
2021/01/14 10:29:59;;;;;;;5.10;2.85;;;1.80;99.90;;;;;;5009349;23;20061;-95
2021/01/14 10:32:27;;;;;;;4.68;2.25;;;1.80;99.90;;;;;;4982817;23;20050;-96
2021/01/14 10:34:59;;;;;;;1.58;1.05;;;1.80;99.90;;;;;;4950063;29;20054;-96
2021/01/14 10:37:39;;;;;;;3.17;1.90;;;1.70;99.90;;;;;;4938448;29;20059;-96
2021/01/14 10:40:26;;;;;;;2.47;1.00;;;1.70;99.90;;;;;;4926723;29;20119;-96
2021/01/14 10:42:52;;;;;;;1.50;0.60;;;1.80;99.90;;;;;;4923972;29;20036;-96
2021/01/14 10:45:26;;;;;;;2.45;1.38;;;1.80;99.90;;;;;;4923541;29;20086;-96
2021/01/14 10:48:22;;;;;;;6.30;3.08;;;1.80;99.90;;;;;;4925752;29;20059;-96
2021/01/14 10:50:55;;;;;;;3.65;1.95;;;1.70;99.90;;;;;;4929466;29;20032;-95
2021/01/14 10:53:29;;;;;;;1.95;1.17;;;1.70;99.90;;;;;;4923002;29;20124;-95
2021/01/14 10:56:07;;;;;;;23.70;11.20;;;1.70;99.90;;;;;;4920168;29;20040;-95
2021/01/14 10:58:34;;;;;;;11.02;5.93;;;1.70;99.90;;;;;;4933296;29;20031;-96
2021/01/14 11:01:00;;;;;;;4.70;2.65;;;1.70;99.90;;;;;;4917541;29;20034;-94
2021/01/14 11:03:27;;;;;;;3.22;1.48;;;1.70;99.90;;;;;;4917664;29;20119;-96
2021/01/14 11:05:55;;;;;;;5.40;2.63;;;1.70;99.90;;;;;;4918263;29;20059;-96
2021/01/14 11:08:25;;;;;;;5.35;3.63;;;1.60;99.90;;;;;;4917816;29;20031;-95
2021/01/14 11:11:14;;;;;;;4.17;2.80;;;1.60;99.90;;;;;;4919743;29;20059;-96
2021/01/14 11:13:48;;;;;;;6.70;2.95;;;1.60;99.90;;;;;;4920582;29;20035;-96
2021/01/14 11:16:18;;;;;;;5.22;2.50;;;1.70;99.90;;;;;;4915921;29;20037;-95
2021/01/14 11:18:45;;;;;;;3.78;2.33;;;1.70;99.90;;;;;;4922748;29;20071;-96
2021/01/14 11:21:13;;;;;;;4.55;2.40;;;1.70;99.90;;;;;;4918210;29;20036;-96
2021/01/14 11:23:40;;;;;;;2.95;1.92;;;1.70;99.90;;;;;;4919495;29;20488;-94
2021/01/14 11:26:06;;;;;;;6.72;2.60;;;1.60;99.90;;;;;;4918548;29;20066;-95
2021/01/14 11:28:41;;;;;;;5.15;2.45;;;1.60;99.90;;;;;;4920959;29;20059;-95
2021/01/14 11:31:11;;;;;;;5.30;2.45;;;1.60;99.90;;;;;;4934924;29;20044;-94
2021/01/14 11:33:37;;;;;;;7.05;2.92;;;1.60;99.90;;;;;;4934860;29;20036;-95
2021/01/14 11:36:04;;;;;;;7.68;3.00;;;1.60;99.90;;;;;;4918078;29;20024;-94
2021/01/14 11:38:31;;;;;;;7.13;2.78;;;1.60;99.90;;;;;;4918865;29;20035;-95
2021/01/14 11:40:57;;;;;;;8.27;3.47;;;1.60;99.90;;;;;;4919056;29;20020;-95
2021/01/14 11:43:22;;;;;;;13.95;3.92;;;1.60;99.90;;;;;;4918945;29;20540;-95
2021/01/14 11:45:48;;;;;;;9.50;3.58;;;1.60;99.90;;;;;;4919641;29;20032;-94
2021/01/14 11:48:14;;;;;;;10.63;3.10;;;1.60;99.90;;;;;;4921792;29;20504;-94
2021/01/14 11:50:40;;;;;;;5.63;2.10;;;1.60;99.90;;;;;;4918505;29;20036;-94
2021/01/14 11:53:06;;;;;;;6.03;4.05;;;1.60;99.90;;;;;;4917588;29;20477;-94
2021/01/14 11:55:32;;;;;;;14.20;6.25;;;1.60;99.90;;;;;;4919442;29;20049;-95
2021/01/14 11:57:57;;;;;;;7.40;3.42;;;1.50;99.90;;;;;;4918397;29;20042;-95
2021/01/14 12:00:23;;;;;;;6.43;3.33;;;1.50;99.90;;;;;;4918680;29;20062;-95
2021/01/14 12:02:50;;;;;;;5.80;2.55;;;1.50;99.90;;;;;;4934678;29;20031;-95
2021/01/14 12:05:16;;;;;;;9.75;4.55;;;1.50;99.90;;;;;;4917323;29;20388;-95
2021/01/14 12:07:42;;;;;;;15.93;6.65;;;1.60;99.90;;;;;;4933129;29;20160;-95
2021/01/14 12:10:08;;;;;;;8.60;4.18;;;1.50;99.90;;;;;;4916702;29;20138;-96
2021/01/14 12:12:35;;;;;;;114.40;36.53;;;1.50;99.90;;;;;;4916388;29;20036;-94
2021/01/14 12:15:02;;;;;;;16.80;8.00;;;1.50;99.90;;;;;;4921720;29;20047;-95
2021/01/14 12:17:28;;;;;;;20.90;7.72;;;1.50;99.90;;;;;;4915816;29;20441;-95
2021/01/14 12:19:54;;;;;;;3.47;2.47;;;1.50;99.90;;;;;;4916653;29;20047;-95
2021/01/14 12:22:19;;;;;;;8.15;4.03;;;1.50;99.90;;;;;;4916967;29;20046;-95
2021/01/14 12:24:45;;;;;;;7.07;3.78;;;1.50;99.90;;;;;;4917037;29;20078;-94
2021/01/14 12:27:11;;;;;;;5.70;3.00;;;1.50;99.90;;;;;;4917109;29;20115;-93
2021/01/14 12:29:36;;;;;;;2.60;1.70;;;1.50;99.90;;;;;;4914909;29;20066;-94
2021/01/14 12:32:03;;;;;;;1.67;1.30;;;1.60;99.90;;;;;;4915675;29;20569;-93
2021/01/14 12:34:29;;;;;;;3.72;2.90;;;1.50;99.90;;;;;;4914878;29;20501;-94
2021/01/14 12:36:56;;;;;;;9.38;6.60;;;1.50;99.90;;;;;;4919514;29;20119;-92
2021/01/14 12:39:22;;;;;;;11.18;8.73;;;1.50;99.90;;;;;;4918823;29;20031;-94
2021/01/14 12:41:47;;;;;;;4.75;3.55;;;1.50;99.90;;;;;;4917323;29;20038;-94
2021/01/14 12:44:14;;;;;;;2.20;1.70;;;1.40;99.90;;;;;;4932701;29;20019;-94
2021/01/14 12:46:42;;;;;;;1.73;1.42;;;1.40;99.90;;;;;;4918722;29;20127;-95
2021/01/14 12:49:09;;;;;;;2.42;2.00;;;1.40;99.90;;;;;;4920220;29;20035;-95
2021/01/14 12:51:38;;;;;;;0.85;0.60;;;1.40;99.90;;;;;;4921013;29;20032;-94
2021/01/14 12:54:05;;;;;;;0.80;0.70;;;1.40;99.90;;;;;;4918334;29;20038;-95
2021/01/14 12:56:30;;;;;;;2.65;1.13;;;1.40;99.90;;;;;;4916662;29;20382;-95
2021/01/14 12:58:56;;;;;;;1.00;0.73;;;1.50;99.90;;;;;;4930789;29;20034;-93
2021/01/14 13:01:37;;;;;;;0.63;0.60;;;1.50;99.90;;;;;;4917803;29;20039;-94
2021/01/14 13:04:06;;;;;;;0.88;0.73;;;1.50;99.90;;;;;;4933391;29;20036;-93
2021/01/14 13:06:37;;;;;;;0.55;0.50;;;1.50;99.90;;;;;;4932120;29;20027;-94
2021/01/14 13:09:05;;;;;;;0.40;0.40;;;1.60;99.90;;;;;;4917511;29;20028;-93
2021/01/14 13:11:31;;;;;;;0.80;0.57;;;1.50;99.90;;;;;;4916232;29;20030;-94
2021/01/14 13:13:58;;;;;;;1.48;0.63;;;1.60;99.90;;;;;;4918793;29;20061;-94
2021/01/14 13:16:36;;;;;;;0.93;0.65;;;1.50;99.90;;;;;;4916315;29;20647;-95